sensor_id;sensor_type;location;lat;lon;timestamp;P1;durP1;ratioP1;P2;durP2;ratioP2
23868;SDS011;12115;47.128;15.422;2022-08-01T00:00:13;2.85;;;1.95;;
23868;SDS011;12115;47.128;15.422;2022-08-01T00:02:41;3.25;;;1.70;;
23868;SDS011;12115;47.128;15.422;2022-08-01T00:05:08;1.90;;;1.70;;
23868;SDS011;12115;47.128;15.422;2022-08-01T00:07:37;4.28;;;2.00;;
23868;SDS011;12115;47.128;15.422;2022-08-01T00:10:06;2.00;;;1.80;;
23868;SDS011;12115;47.128;15.422;2022-08-01T00:12:36;3.60;;;2.20;;
23868;SDS011;12115;47.128;15.422;2022-08-01T00:15:03;4.25;;;1.88;;
23868;SDS011;12115;47.128;15.422;2022-08-01T00:17:31;2.03;;;1.85;;
23868;SDS011;12115;47.128;15.422;2022-08-01T00:19:59;2.20;;;1.70;;
23868;SDS011;12115;47.128;15.422;2022-08-01T00:22:26;2.58;;;1.77;;
23868;SDS011;12115;47.128;15.422;2022-08-01T00:24:53;2.45;;;1.60;;
23868;SDS011;12115;47.128;15.422;2022-08-01T00:27:20;3.38;;;2.20;;
23868;SDS011;12115;47.128;15.422;2022-08-01T00:29:47;3.28;;;1.60;;
23868;SDS011;12115;47.128;15.422;2022-08-01T00:32:34;3.97;;;2.10;;
23868;SDS011;12115;47.128;15.422;2022-08-01T00:35:01;2.55;;;1.75;;
23868;SDS011;12115;47.128;15.422;2022-08-01T00:37:28;1.92;;;1.73;;
23868;SDS011;12115;47.128;15.422;2022-08-01T00:39:55;3.92;;;1.83;;
23868;SDS011;12115;47.128;15.422;2022-08-01T00:42:22;3.40;;;1.67;;
23868;SDS011;12115;47.128;15.422;2022-08-01T00:44:49;3.75;;;2.20;;
23868;SDS011;12115;47.128;15.422;2022-08-01T00:47:16;2.97;;;1.95;;
23868;SDS011;12115;47.128;15.422;2022-08-01T00:49:43;4.72;;;1.98;;
23868;SDS011;12115;47.128;15.422;2022-08-01T00:52:10;3.03;;;1.92;;
23868;SDS011;12115;47.128;15.422;2022-08-01T00:54:37;3.63;;;1.90;;
23868;SDS011;12115;47.128;15.422;2022-08-01T00:57:05;2.13;;;1.92;;
23868;SDS011;12115;47.128;15.422;2022-08-01T00:59:36;3.72;;;2.00;;
23868;SDS011;12115;47.128;15.422;2022-08-01T01:02:06;2.50;;;1.80;;
23868;SDS011;12115;47.128;15.422;2022-08-01T01:04:43;3.80;;;1.80;;
23868;SDS011;12115;47.128;15.422;2022-08-01T01:15:06;4.18;;;1.88;;
23868;SDS011;12115;47.128;15.422;2022-08-01T01:17:50;3.42;;;2.15;;
23868;SDS011;12115;47.128;15.422;2022-08-01T01:20:32;1.80;;;1.60;;
23868;SDS011;12115;47.128;15.422;2022-08-01T01:26:15;4.80;;;2.05;;
23868;SDS011;12115;47.128;15.422;2022-08-01T01:31:40;5.65;;;2.15;;
23868;SDS011;12115;47.128;15.422;2022-08-01T01:34:11;3.47;;;1.63;;
23868;SDS011;12115;47.128;15.422;2022-08-01T01:36:39;2.00;;;1.77;;
23868;SDS011;12115;47.128;15.422;2022-08-01T01:39:08;2.00;;;1.80;;
23868;SDS011;12115;47.128;15.422;2022-08-01T01:41:36;1.83;;;1.73;;
23868;SDS011;12115;47.128;15.422;2022-08-01T01:44:05;2.38;;;1.98;;
23868;SDS011;12115;47.128;15.422;2022-08-01T01:46:32;3.08;;;1.80;;
23868;SDS011;12115;47.128;15.422;2022-08-01T01:49:02;2.50;;;1.80;;
23868;SDS011;12115;47.128;15.422;2022-08-01T01:51:29;4.30;;;2.15;;
23868;SDS011;12115;47.128;15.422;2022-08-01T01:53:58;3.83;;;2.08;;
23868;SDS011;12115;47.128;15.422;2022-08-01T01:56:27;3.55;;;2.10;;
23868;SDS011;12115;47.128;15.422;2022-08-01T01:58:57;2.22;;;2.00;;
23868;SDS011;12115;47.128;15.422;2022-08-01T02:01:28;2.50;;;1.70;;
23868;SDS011;12115;47.128;15.422;2022-08-01T02:04:17;2.25;;;1.80;;
23868;SDS011;12115;47.128;15.422;2022-08-01T02:06:46;2.40;;;2.15;;
23868;SDS011;12115;47.128;15.422;2022-08-01T02:09:19;2.92;;;2.03;;
23868;SDS011;12115;47.128;15.422;2022-08-01T02:11:48;2.88;;;2.00;;
23868;SDS011;12115;47.128;15.422;2022-08-01T02:14:34;2.47;;;1.95;;
23868;SDS011;12115;47.128;15.422;2022-08-01T02:17:02;3.53;;;1.90;;
23868;SDS011;12115;47.128;15.422;2022-08-01T02:19:34;1.95;;;1.83;;
23868;SDS011;12115;47.128;15.422;2022-08-01T02:22:11;2.22;;;1.63;;
23868;SDS011;12115;47.128;15.422;2022-08-01T02:25:04;2.10;;;1.90;;
23868;SDS011;12115;47.128;15.422;2022-08-01T02:27:39;2.00;;;1.80;;
23868;SDS011;12115;47.128;15.422;2022-08-01T02:30:12;2.78;;;1.75;;
23868;SDS011;12115;47.128;15.422;2022-08-01T02:32:47;2.85;;;1.83;;
23868;SDS011;12115;47.128;15.422;2022-08-01T02:35:19;1.63;;;1.50;;
23868;SDS011;12115;47.128;15.422;2022-08-01T02:37:53;2.95;;;1.52;;
23868;SDS011;12115;47.128;15.422;2022-08-01T02:40:23;3.05;;;2.22;;
23868;SDS011;12115;47.128;15.422;2022-08-01T02:42:52;2.22;;;2.03;;
23868;SDS011;12115;47.128;15.422;2022-08-01T02:45:24;1.95;;;1.80;;
23868;SDS011;12115;47.128;15.422;2022-08-01T02:47:54;3.28;;;1.80;;
23868;SDS011;12115;47.128;15.422;2022-08-01T02:50:25;2.38;;;2.03;;
23868;SDS011;12115;47.128;15.422;2022-08-01T02:52:54;5.40;;;1.70;;
23868;SDS011;12115;47.128;15.422;2022-08-01T02:55:23;3.20;;;1.88;;
23868;SDS011;12115;47.128;15.422;2022-08-01T02:57:51;1.75;;;1.65;;
23868;SDS011;12115;47.128;15.422;2022-08-01T03:00:26;2.85;;;1.75;;
23868;SDS011;12115;47.128;15.422;2022-08-01T03:02:56;2.05;;;1.85;;
23868;SDS011;12115;47.128;15.422;2022-08-01T03:05:25;2.20;;;1.95;;
23868;SDS011;12115;47.128;15.422;2022-08-01T03:07:54;3.13;;;1.70;;
23868;SDS011;12115;47.128;15.422;2022-08-01T03:10:29;1.83;;;1.70;;
23868;SDS011;12115;47.128;15.422;2022-08-01T03:12:58;2.22;;;1.63;;
23868;SDS011;12115;47.128;15.422;2022-08-01T03:15:27;2.25;;;2.05;;
23868;SDS011;12115;47.128;15.422;2022-08-01T03:17:59;4.70;;;2.42;;
23868;SDS011;12115;47.128;15.422;2022-08-01T03:20:27;3.92;;;2.10;;
23868;SDS011;12115;47.128;15.422;2022-08-01T03:22:56;2.88;;;2.10;;
23868;SDS011;12115;47.128;15.422;2022-08-01T03:25:25;3.35;;;2.00;;
23868;SDS011;12115;47.128;15.422;2022-08-01T03:27:58;4.28;;;1.80;;
23868;SDS011;12115;47.128;15.422;2022-08-01T03:30:28;3.05;;;2.00;;
23868;SDS011;12115;47.128;15.422;2022-08-01T03:32:57;2.45;;;2.05;;
23868;SDS011;12115;47.128;15.422;2022-08-01T03:35:26;2.10;;;1.85;;
23868;SDS011;12115;47.128;15.422;2022-08-01T03:38:17;2.30;;;2.10;;
23868;SDS011;12115;47.128;15.422;2022-08-01T03:40:48;3.38;;;2.28;;
23868;SDS011;12115;47.128;15.422;2022-08-01T03:43:22;2.35;;;1.95;;
23868;SDS011;12115;47.128;15.422;2022-08-01T03:46:01;3.65;;;2.03;;
23868;SDS011;12115;47.128;15.422;2022-08-01T03:48:35;3.00;;;2.42;;
23868;SDS011;12115;47.128;15.422;2022-08-01T03:51:07;2.85;;;1.95;;
23868;SDS011;12115;47.128;15.422;2022-08-01T03:53:35;1.92;;;1.70;;
23868;SDS011;12115;47.128;15.422;2022-08-01T03:56:08;4.55;;;1.92;;
23868;SDS011;12115;47.128;15.422;2022-08-01T03:58:38;2.40;;;2.10;;
23868;SDS011;12115;47.128;15.422;2022-08-01T04:01:06;3.13;;;1.60;;
23868;SDS011;12115;47.128;15.422;2022-08-01T04:03:41;2.55;;;2.03;;
23868;SDS011;12115;47.128;15.422;2022-08-01T04:06:09;2.10;;;1.90;;
23868;SDS011;12115;47.128;15.422;2022-08-01T04:08:37;2.55;;;2.35;;
23868;SDS011;12115;47.128;15.422;2022-08-01T04:11:05;2.30;;;2.10;;
23868;SDS011;12115;47.128;15.422;2022-08-01T04:13:34;2.80;;;2.13;;
23868;SDS011;12115;47.128;15.422;2022-08-01T04:16:04;2.05;;;1.58;;
23868;SDS011;12115;47.128;15.422;2022-08-01T04:18:31;3.35;;;2.05;;
23868;SDS011;12115;47.128;15.422;2022-08-01T04:20:58;1.80;;;1.70;;
23868;SDS011;12115;47.128;15.422;2022-08-01T04:23:29;3.03;;;2.03;;
23868;SDS011;12115;47.128;15.422;2022-08-01T04:25:59;1.60;;;1.50;;
23868;SDS011;12115;47.128;15.422;2022-08-01T04:28:31;1.73;;;1.52;;
23868;SDS011;12115;47.128;15.422;2022-08-01T04:31:01;5.40;;;2.33;;
23868;SDS011;12115;47.128;15.422;2022-08-01T04:33:31;5.28;;;2.20;;
23868;SDS011;12115;47.128;15.422;2022-08-01T04:36:03;2.75;;;2.00;;
23868;SDS011;12115;47.128;15.422;2022-08-01T04:38:33;4.97;;;2.83;;
23868;SDS011;12115;47.128;15.422;2022-08-01T04:41:04;6.07;;;2.80;;
23868;SDS011;12115;47.128;15.422;2022-08-01T04:43:35;5.95;;;2.30;;
23868;SDS011;12115;47.128;15.422;2022-08-01T04:46:06;5.43;;;2.10;;
23868;SDS011;12115;47.128;15.422;2022-08-01T04:48:34;2.83;;;2.17;;
23868;SDS011;12115;47.128;15.422;2022-08-01T04:51:09;1.97;;;1.83;;
23868;SDS011;12115;47.128;15.422;2022-08-01T04:53:42;3.13;;;2.20;;
23868;SDS011;12115;47.128;15.422;2022-08-01T04:56:10;7.28;;;2.85;;
23868;SDS011;12115;47.128;15.422;2022-08-01T04:58:40;8.40;;;3.10;;
23868;SDS011;12115;47.128;15.422;2022-08-01T05:01:07;7.13;;;2.92;;
23868;SDS011;12115;47.128;15.422;2022-08-01T05:03:35;2.90;;;2.55;;
23868;SDS011;12115;47.128;15.422;2022-08-01T05:06:04;7.68;;;2.47;;
23868;SDS011;12115;47.128;15.422;2022-08-01T05:08:31;3.92;;;2.45;;
23868;SDS011;12115;47.128;15.422;2022-08-01T05:10:59;5.60;;;2.53;;
23868;SDS011;12115;47.128;15.422;2022-08-01T05:13:27;6.30;;;2.88;;
23868;SDS011;12115;47.128;15.422;2022-08-01T05:15:54;3.70;;;2.03;;
23868;SDS011;12115;47.128;15.422;2022-08-01T05:18:21;3.88;;;2.38;;
23868;SDS011;12115;47.128;15.422;2022-08-01T05:20:53;2.17;;;1.92;;
23868;SDS011;12115;47.128;15.422;2022-08-01T05:23:21;3.17;;;2.15;;
23868;SDS011;12115;47.128;15.422;2022-08-01T05:26:08;3.70;;;2.40;;
23868;SDS011;12115;47.128;15.422;2022-08-01T05:28:36;3.88;;;2.17;;
23868;SDS011;12115;47.128;15.422;2022-08-01T05:31:03;6.53;;;2.47;;
23868;SDS011;12115;47.128;15.422;2022-08-01T05:33:30;1.80;;;1.58;;
23868;SDS011;12115;47.128;15.422;2022-08-01T05:35:59;2.47;;;2.00;;
23868;SDS011;12115;47.128;15.422;2022-08-01T05:38:26;4.13;;;2.60;;
23868;SDS011;12115;47.128;15.422;2022-08-01T05:40:53;3.42;;;1.75;;
23868;SDS011;12115;47.128;15.422;2022-08-01T05:43:20;2.88;;;1.50;;
23868;SDS011;12115;47.128;15.422;2022-08-01T05:45:53;2.63;;;1.90;;
23868;SDS011;12115;47.128;15.422;2022-08-01T05:48:21;1.88;;;1.48;;
23868;SDS011;12115;47.128;15.422;2022-08-01T05:50:48;3.42;;;2.08;;
23868;SDS011;12115;47.128;15.422;2022-08-01T05:53:19;2.22;;;1.70;;
23868;SDS011;12115;47.128;15.422;2022-08-01T05:55:46;2.83;;;1.50;;
23868;SDS011;12115;47.128;15.422;2022-08-01T05:58:13;2.50;;;1.98;;
23868;SDS011;12115;47.128;15.422;2022-08-01T06:00:40;4.50;;;1.88;;
23868;SDS011;12115;47.128;15.422;2022-08-01T06:03:07;3.35;;;1.85;;
23868;SDS011;12115;47.128;15.422;2022-08-01T06:05:34;3.97;;;2.20;;
23868;SDS011;12115;47.128;15.422;2022-08-01T06:08:02;4.18;;;2.50;;
23868;SDS011;12115;47.128;15.422;2022-08-01T06:10:29;4.57;;;2.40;;
23868;SDS011;12115;47.128;15.422;2022-08-01T06:12:56;5.18;;;2.40;;
23868;SDS011;12115;47.128;15.422;2022-08-01T06:15:24;3.40;;;2.47;;
23868;SDS011;12115;47.128;15.422;2022-08-01T06:17:51;3.30;;;2.60;;
23868;SDS011;12115;47.128;15.422;2022-08-01T06:20:18;7.97;;;3.00;;
23868;SDS011;12115;47.128;15.422;2022-08-01T06:22:45;5.32;;;2.35;;
23868;SDS011;12115;47.128;15.422;2022-08-01T06:25:18;2.35;;;2.15;;
23868;SDS011;12115;47.128;15.422;2022-08-01T06:27:46;4.30;;;2.63;;
23868;SDS011;12115;47.128;15.422;2022-08-01T06:30:14;4.95;;;2.42;;
23868;SDS011;12115;47.128;15.422;2022-08-01T06:32:48;2.78;;;2.28;;
23868;SDS011;12115;47.128;15.422;2022-08-01T06:35:17;3.55;;;2.50;;
23868;SDS011;12115;47.128;15.422;2022-08-01T06:37:50;4.95;;;2.78;;
23868;SDS011;12115;47.128;15.422;2022-08-01T06:40:18;2.92;;;2.55;;
23868;SDS011;12115;47.128;15.422;2022-08-01T06:42:52;4.85;;;2.50;;
23868;SDS011;12115;47.128;15.422;2022-08-01T06:45:24;3.03;;;2.30;;
23868;SDS011;12115;47.128;15.422;2022-08-01T06:47:56;4.35;;;2.40;;
23868;SDS011;12115;47.128;15.422;2022-08-01T06:50:30;2.90;;;2.40;;
23868;SDS011;12115;47.128;15.422;2022-08-01T06:53:07;4.63;;;2.42;;
23868;SDS011;12115;47.128;15.422;2022-08-01T06:55:37;3.47;;;2.83;;
23868;SDS011;12115;47.128;15.422;2022-08-01T06:58:10;4.87;;;2.50;;
23868;SDS011;12115;47.128;15.422;2022-08-01T07:00:44;6.00;;;2.67;;
23868;SDS011;12115;47.128;15.422;2022-08-01T07:03:21;3.53;;;2.17;;
23868;SDS011;12115;47.128;15.422;2022-08-01T07:06:15;6.10;;;3.00;;
23868;SDS011;12115;47.128;15.422;2022-08-01T07:08:45;4.65;;;2.80;;
23868;SDS011;12115;47.128;15.422;2022-08-01T07:11:23;3.65;;;2.40;;
23868;SDS011;12115;47.128;15.422;2022-08-01T07:13:53;3.58;;;2.67;;
23868;SDS011;12115;47.128;15.422;2022-08-01T07:16:26;3.65;;;2.70;;
23868;SDS011;12115;47.128;15.422;2022-08-01T07:18:56;4.85;;;2.80;;
23868;SDS011;12115;47.128;15.422;2022-08-01T07:21:23;3.35;;;2.85;;
23868;SDS011;12115;47.128;15.422;2022-08-01T07:24:09;4.28;;;2.60;;
23868;SDS011;12115;47.128;15.422;2022-08-01T07:26:47;2.88;;;2.33;;
23868;SDS011;12115;47.128;15.422;2022-08-01T07:29:25;3.70;;;2.78;;
23868;SDS011;12115;47.128;15.422;2022-08-01T07:31:54;3.03;;;2.58;;
23868;SDS011;12115;47.128;15.422;2022-08-01T07:34:22;3.28;;;2.30;;
23868;SDS011;12115;47.128;15.422;2022-08-01T07:36:50;5.15;;;2.58;;
23868;SDS011;12115;47.128;15.422;2022-08-01T07:39:17;4.72;;;2.53;;
23868;SDS011;12115;47.128;15.422;2022-08-01T07:41:45;3.55;;;2.45;;
23868;SDS011;12115;47.128;15.422;2022-08-01T07:44:32;5.40;;;2.10;;
23868;SDS011;12115;47.128;15.422;2022-08-01T07:46:59;5.10;;;2.65;;
23868;SDS011;12115;47.128;15.422;2022-08-01T07:49:26;4.10;;;2.30;;
23868;SDS011;12115;47.128;15.422;2022-08-01T07:51:53;4.45;;;2.40;;
23868;SDS011;12115;47.128;15.422;2022-08-01T07:54:39;3.83;;;2.30;;
23868;SDS011;12115;47.128;15.422;2022-08-01T07:57:06;3.75;;;2.03;;
23868;SDS011;12115;47.128;15.422;2022-08-01T07:59:33;5.22;;;2.53;;
23868;SDS011;12115;47.128;15.422;2022-08-01T08:02:00;3.05;;;2.38;;
23868;SDS011;12115;47.128;15.422;2022-08-01T08:04:28;3.85;;;2.28;;
23868;SDS011;12115;47.128;15.422;2022-08-01T08:06:55;3.20;;;2.30;;
23868;SDS011;12115;47.128;15.422;2022-08-01T08:09:22;4.05;;;1.95;;
23868;SDS011;12115;47.128;15.422;2022-08-01T08:11:49;4.40;;;2.10;;
23868;SDS011;12115;47.128;15.422;2022-08-01T08:14:16;2.67;;;1.90;;
23868;SDS011;12115;47.128;15.422;2022-08-01T08:16:43;2.58;;;2.00;;
23868;SDS011;12115;47.128;15.422;2022-08-01T08:19:11;4.13;;;2.33;;
23868;SDS011;12115;47.128;15.422;2022-08-01T08:21:38;4.45;;;2.40;;
23868;SDS011;12115;47.128;15.422;2022-08-01T08:24:06;3.35;;;2.42;;
23868;SDS011;12115;47.128;15.422;2022-08-01T08:26:56;2.40;;;1.65;;
23868;SDS011;12115;47.128;15.422;2022-08-01T08:29:25;5.75;;;2.20;;
23868;SDS011;12115;47.128;15.422;2022-08-01T08:31:53;3.40;;;2.10;;
23868;SDS011;12115;47.128;15.422;2022-08-01T08:34:25;4.68;;;2.30;;
23868;SDS011;12115;47.128;15.422;2022-08-01T08:36:53;8.30;;;2.53;;
23868;SDS011;12115;47.128;15.422;2022-08-01T08:39:24;4.03;;;2.38;;
23868;SDS011;12115;47.128;15.422;2022-08-01T08:41:51;3.17;;;2.17;;
23868;SDS011;12115;47.128;15.422;2022-08-01T08:44:19;5.45;;;2.42;;
23868;SDS011;12115;47.128;15.422;2022-08-01T08:46:50;2.70;;;1.85;;
23868;SDS011;12115;47.128;15.422;2022-08-01T08:49:20;8.38;;;2.88;;
23868;SDS011;12115;47.128;15.422;2022-08-01T08:51:52;4.93;;;2.22;;
23868;SDS011;12115;47.128;15.422;2022-08-01T08:54:24;5.40;;;2.13;;
23868;SDS011;12115;47.128;15.422;2022-08-01T08:56:57;7.75;;;2.30;;
23868;SDS011;12115;47.128;15.422;2022-08-01T08:59:25;4.75;;;2.30;;
23868;SDS011;12115;47.128;15.422;2022-08-01T09:01:54;5.53;;;2.40;;
23868;SDS011;12115;47.128;15.422;2022-08-01T09:04:21;5.32;;;1.70;;
23868;SDS011;12115;47.128;15.422;2022-08-01T09:06:52;4.22;;;1.70;;
23868;SDS011;12115;47.128;15.422;2022-08-01T09:09:20;5.70;;;1.98;;
23868;SDS011;12115;47.128;15.422;2022-08-01T09:11:47;2.72;;;1.85;;
23868;SDS011;12115;47.128;15.422;2022-08-01T09:14:23;2.97;;;1.85;;
23868;SDS011;12115;47.128;15.422;2022-08-01T09:17:00;3.05;;;1.80;;
23868;SDS011;12115;47.128;15.422;2022-08-01T09:19:35;3.63;;;1.67;;
23868;SDS011;12115;47.128;15.422;2022-08-01T09:22:07;3.45;;;2.10;;
23868;SDS011;12115;47.128;15.422;2022-08-01T09:24:36;4.28;;;1.80;;
23868;SDS011;12115;47.128;15.422;2022-08-01T09:27:16;4.25;;;1.52;;
23868;SDS011;12115;47.128;15.422;2022-08-01T09:29:48;2.88;;;1.88;;
23868;SDS011;12115;47.128;15.422;2022-08-01T09:32:30;2.70;;;1.40;;
23868;SDS011;12115;47.128;15.422;2022-08-01T09:43:28;4.05;;;1.65;;
23868;SDS011;12115;47.128;15.422;2022-08-01T09:45:57;3.70;;;1.70;;
23868;SDS011;12115;47.128;15.422;2022-08-01T09:48:25;5.05;;;1.80;;
23868;SDS011;12115;47.128;15.422;2022-08-01T09:50:56;3.50;;;1.60;;
23868;SDS011;12115;47.128;15.422;2022-08-01T09:53:43;5.15;;;1.88;;
23868;SDS011;12115;47.128;15.422;2022-08-01T09:56:18;4.70;;;1.77;;
23868;SDS011;12115;47.128;15.422;2022-08-01T10:01:27;5.82;;;1.73;;
23868;SDS011;12115;47.128;15.422;2022-08-01T10:04:04;4.72;;;2.03;;
23868;SDS011;12115;47.128;15.422;2022-08-01T10:06:45;5.60;;;1.63;;
23868;SDS011;12115;47.128;15.422;2022-08-01T10:09:18;4.25;;;1.73;;
23868;SDS011;12115;47.128;15.422;2022-08-01T10:12:06;3.28;;;1.55;;
23868;SDS011;12115;47.128;15.422;2022-08-01T10:14:41;3.97;;;1.45;;
23868;SDS011;12115;47.128;15.422;2022-08-01T10:17:13;5.68;;;1.30;;
23868;SDS011;12115;47.128;15.422;2022-08-01T10:19:44;5.03;;;1.65;;
23868;SDS011;12115;47.128;15.422;2022-08-01T10:22:12;2.33;;;1.25;;
23868;SDS011;12115;47.128;15.422;2022-08-01T10:24:46;2.15;;;1.58;;
23868;SDS011;12115;47.128;15.422;2022-08-01T10:27:15;3.58;;;1.60;;
23868;SDS011;12115;47.128;15.422;2022-08-01T10:30:03;4.05;;;1.40;;
23868;SDS011;12115;47.128;15.422;2022-08-01T10:32:44;4.72;;;1.63;;
23868;SDS011;12115;47.128;15.422;2022-08-01T10:35:16;3.42;;;1.55;;
23868;SDS011;12115;47.128;15.422;2022-08-01T10:38:05;3.20;;;1.58;;
23868;SDS011;12115;47.128;15.422;2022-08-01T10:40:39;5.43;;;1.45;;
23868;SDS011;12115;47.128;15.422;2022-08-01T10:43:11;4.25;;;1.40;;
23868;SDS011;12115;47.128;15.422;2022-08-01T10:45:46;2.40;;;1.38;;
23868;SDS011;12115;47.128;15.422;2022-08-01T10:48:16;5.38;;;1.40;;
23868;SDS011;12115;47.128;15.422;2022-08-01T10:50:51;3.47;;;1.40;;
23868;SDS011;12115;47.128;15.422;2022-08-01T10:53:22;2.65;;;1.17;;
23868;SDS011;12115;47.128;15.422;2022-08-01T10:56:07;3.63;;;1.58;;
23868;SDS011;12115;47.128;15.422;2022-08-01T10:58:42;2.00;;;1.27;;
23868;SDS011;12115;47.128;15.422;2022-08-01T11:01:29;4.18;;;1.35;;
23868;SDS011;12115;47.128;15.422;2022-08-01T11:04:03;2.00;;;1.27;;
23868;SDS011;12115;47.128;15.422;2022-08-01T11:06:43;2.92;;;1.20;;
23868;SDS011;12115;47.128;15.422;2022-08-01T11:12:40;1.90;;;0.97;;
23868;SDS011;12115;47.128;15.422;2022-08-01T11:20:13;3.03;;;0.90;;
23868;SDS011;12115;47.128;15.422;2022-08-01T11:28:23;1.25;;;0.70;;
23868;SDS011;12115;47.128;15.422;2022-08-01T11:41:39;1.45;;;0.68;;
23868;SDS011;12115;47.128;15.422;2022-08-01T11:44:14;1.55;;;0.63;;
23868;SDS011;12115;47.128;15.422;2022-08-01T11:54:38;0.73;;;0.60;;
23868;SDS011;12115;47.128;15.422;2022-08-01T11:57:09;2.30;;;0.70;;
23868;SDS011;12115;47.128;15.422;2022-08-01T12:02:40;0.98;;;0.50;;
23868;SDS011;12115;47.128;15.422;2022-08-01T12:05:11;3.30;;;0.70;;
23868;SDS011;12115;47.128;15.422;2022-08-01T12:07:41;1.50;;;0.77;;
23868;SDS011;12115;47.128;15.422;2022-08-01T12:10:16;1.27;;;0.50;;
23868;SDS011;12115;47.128;15.422;2022-08-01T12:12:51;2.40;;;0.75;;
23868;SDS011;12115;47.128;15.422;2022-08-01T12:15:22;1.75;;;0.90;;
23868;SDS011;12115;47.128;15.422;2022-08-01T12:17:51;3.13;;;0.73;;
23868;SDS011;12115;47.128;15.422;2022-08-01T12:20:29;3.53;;;0.70;;
23868;SDS011;12115;47.128;15.422;2022-08-01T12:23:05;0.98;;;0.60;;
23868;SDS011;12115;47.128;15.422;2022-08-01T12:25:34;1.98;;;0.60;;
23868;SDS011;12115;47.128;15.422;2022-08-01T12:28:03;1.30;;;0.57;;
23868;SDS011;12115;47.128;15.422;2022-08-01T12:30:32;1.75;;;0.43;;
23868;SDS011;12115;47.128;15.422;2022-08-01T12:33:08;3.78;;;0.70;;
23868;SDS011;12115;47.128;15.422;2022-08-01T12:35:37;1.52;;;0.47;;
23868;SDS011;12115;47.128;15.422;2022-08-01T12:38:16;1.30;;;0.60;;
23868;SDS011;12115;47.128;15.422;2022-08-01T12:40:49;2.72;;;1.25;;
23868;SDS011;12115;47.128;15.422;2022-08-01T12:43:19;2.35;;;0.70;;
23868;SDS011;12115;47.128;15.422;2022-08-01T12:45:54;2.70;;;0.60;;
23868;SDS011;12115;47.128;15.422;2022-08-01T12:48:24;2.33;;;0.60;;
23868;SDS011;12115;47.128;15.422;2022-08-01T12:50:52;1.88;;;0.60;;
23868;SDS011;12115;47.128;15.422;2022-08-01T12:53:20;1.30;;;0.52;;
23868;SDS011;12115;47.128;15.422;2022-08-01T12:55:52;1.95;;;0.70;;
23868;SDS011;12115;47.128;15.422;2022-08-01T12:58:31;4.10;;;0.70;;
23868;SDS011;12115;47.128;15.422;2022-08-01T13:01:06;4.10;;;0.70;;
23868;SDS011;12115;47.128;15.422;2022-08-01T13:03:36;1.13;;;0.60;;
23868;SDS011;12115;47.128;15.422;2022-08-01T13:06:13;4.13;;;0.60;;
23868;SDS011;12115;47.128;15.422;2022-08-01T13:08:43;1.42;;;0.60;;
23868;SDS011;12115;47.128;15.422;2022-08-01T13:11:11;2.10;;;0.93;;
23868;SDS011;12115;47.128;15.422;2022-08-01T13:13:45;2.08;;;1.00;;
23868;SDS011;12115;47.128;15.422;2022-08-01T13:16:17;0.50;;;0.50;;
23868;SDS011;12115;47.128;15.422;2022-08-01T13:18:59;4.93;;;0.60;;
23868;SDS011;12115;47.128;15.422;2022-08-01T13:21:30;2.28;;;0.70;;
23868;SDS011;12115;47.128;15.422;2022-08-01T13:24:22;1.27;;;0.57;;
23868;SDS011;12115;47.128;15.422;2022-08-01T13:26:56;2.92;;;0.63;;
23868;SDS011;12115;47.128;15.422;2022-08-01T13:32:18;1.52;;;0.70;;
23868;SDS011;12115;47.128;15.422;2022-08-01T13:37:49;1.02;;;0.65;;
23868;SDS011;12115;47.128;15.422;2022-08-01T13:40:23;2.40;;;0.90;;
23868;SDS011;12115;47.128;15.422;2022-08-01T13:42:53;1.17;;;0.63;;
23868;SDS011;12115;47.128;15.422;2022-08-01T13:45:22;1.48;;;0.55;;
23868;SDS011;12115;47.128;15.422;2022-08-01T13:47:51;1.15;;;0.50;;
23868;SDS011;12115;47.128;15.422;2022-08-01T13:50:38;2.28;;;0.68;;
23868;SDS011;12115;47.128;15.422;2022-08-01T13:53:06;3.42;;;0.68;;
23868;SDS011;12115;47.128;15.422;2022-08-01T13:55:33;0.80;;;0.43;;
23868;SDS011;12115;47.128;15.422;2022-08-01T13:58:01;1.55;;;0.70;;
23868;SDS011;12115;47.128;15.422;2022-08-01T14:00:29;1.55;;;0.60;;
23868;SDS011;12115;47.128;15.422;2022-08-01T14:02:56;1.77;;;0.70;;
23868;SDS011;12115;47.128;15.422;2022-08-01T14:05:23;0.90;;;0.80;;
23868;SDS011;12115;47.128;15.422;2022-08-01T14:07:50;0.90;;;0.68;;
23868;SDS011;12115;47.128;15.422;2022-08-01T14:10:22;1.05;;;0.80;;
23868;SDS011;12115;47.128;15.422;2022-08-01T14:12:57;0.85;;;0.52;;
23868;SDS011;12115;47.128;15.422;2022-08-01T14:15:27;1.90;;;0.70;;
23868;SDS011;12115;47.128;15.422;2022-08-01T14:18:05;0.68;;;0.43;;
23868;SDS011;12115;47.128;15.422;2022-08-01T14:20:35;1.13;;;0.68;;
23868;SDS011;12115;47.128;15.422;2022-08-01T14:23:04;2.67;;;0.90;;
23868;SDS011;12115;47.128;15.422;2022-08-01T14:25:35;0.98;;;0.50;;
23868;SDS011;12115;47.128;15.422;2022-08-01T14:28:25;1.90;;;0.60;;
23868;SDS011;12115;47.128;15.422;2022-08-01T14:30:54;2.85;;;0.88;;
23868;SDS011;12115;47.128;15.422;2022-08-01T14:33:22;0.85;;;0.77;;
23868;SDS011;12115;47.128;15.422;2022-08-01T14:35:49;1.30;;;0.75;;
23868;SDS011;12115;47.128;15.422;2022-08-01T14:38:36;1.05;;;0.70;;
23868;SDS011;12115;47.128;15.422;2022-08-01T14:41:03;2.00;;;0.73;;
23868;SDS011;12115;47.128;15.422;2022-08-01T14:43:30;2.45;;;0.70;;
23868;SDS011;12115;47.128;15.422;2022-08-01T14:46:00;1.35;;;0.80;;
23868;SDS011;12115;47.128;15.422;2022-08-01T14:48:30;2.85;;;0.65;;
23868;SDS011;12115;47.128;15.422;2022-08-01T14:50:58;1.00;;;0.60;;
23868;SDS011;12115;47.128;15.422;2022-08-01T14:53:29;1.75;;;0.68;;
23868;SDS011;12115;47.128;15.422;2022-08-01T14:55:59;0.83;;;0.60;;
23868;SDS011;12115;47.128;15.422;2022-08-01T14:58:26;1.92;;;0.77;;
23868;SDS011;12115;47.128;15.422;2022-08-01T15:00:53;5.20;;;0.68;;
23868;SDS011;12115;47.128;15.422;2022-08-01T15:03:24;1.17;;;0.60;;
23868;SDS011;12115;47.128;15.422;2022-08-01T15:05:52;2.85;;;0.70;;
23868;SDS011;12115;47.128;15.422;2022-08-01T15:08:19;2.33;;;0.80;;
23868;SDS011;12115;47.128;15.422;2022-08-01T15:10:46;1.25;;;0.60;;
23868;SDS011;12115;47.128;15.422;2022-08-01T15:13:13;1.60;;;0.77;;
23868;SDS011;12115;47.128;15.422;2022-08-01T15:15:40;2.22;;;0.68;;
23868;SDS011;12115;47.128;15.422;2022-08-01T15:18:07;0.68;;;0.63;;
23868;SDS011;12115;47.128;15.422;2022-08-01T15:20:34;2.55;;;0.70;;
23868;SDS011;12115;47.128;15.422;2022-08-01T15:23:01;2.33;;;0.95;;
23868;SDS011;12115;47.128;15.422;2022-08-01T15:25:28;4.88;;;0.77;;
23868;SDS011;12115;47.128;15.422;2022-08-01T15:28:07;2.15;;;0.70;;
23868;SDS011;12115;47.128;15.422;2022-08-01T15:30:36;2.95;;;0.60;;
23868;SDS011;12115;47.128;15.422;2022-08-01T15:33:03;1.27;;;0.70;;
23868;SDS011;12115;47.128;15.422;2022-08-01T15:35:31;1.45;;;0.65;;
23868;SDS011;12115;47.128;15.422;2022-08-01T15:37:58;2.05;;;0.68;;
23868;SDS011;12115;47.128;15.422;2022-08-01T15:40:25;1.58;;;0.80;;
23868;SDS011;12115;47.128;15.422;2022-08-01T15:42:57;1.60;;;0.98;;
23868;SDS011;12115;47.128;15.422;2022-08-01T15:45:25;2.22;;;0.90;;
23868;SDS011;12115;47.128;15.422;2022-08-01T15:48:12;1.05;;;0.85;;
23868;SDS011;12115;47.128;15.422;2022-08-01T15:50:39;5.28;;;1.10;;
23868;SDS011;12115;47.128;15.422;2022-08-01T15:53:07;1.35;;;0.77;;
23868;SDS011;12115;47.128;15.422;2022-08-01T15:55:37;2.97;;;1.05;;
23868;SDS011;12115;47.128;15.422;2022-08-01T15:58:05;2.03;;;0.93;;
23868;SDS011;12115;47.128;15.422;2022-08-01T16:00:32;1.92;;;0.85;;
23868;SDS011;12115;47.128;15.422;2022-08-01T16:03:04;2.92;;;0.90;;